Flight Track Log - Related Links

Times and Time Zones

All times are in EDT time to prevent confusion due to time zone crossing. See the N39751 flight status page for this flight to view local times or setup timezone preferences in your user account.

Time Position Orientation Groundspeed Altitude Reporting Facility
EDT Latitude Longitude Course Direction KTS MPH feet Rate Location/Type
Fri 05:08:00 PM 33.8168 -80.9693 313° West  Level Estimated
Fri 05:09:00 PM 33.8444 -81.0056 313° West  Level Estimated
Fri 05:10:00 PM 33.8721 -81.0420 312° West  Level Estimated
Fri 05:11:00 PM 33.8997 -81.0784 312° West  Level Estimated
Fri 05:12:00 PM 33.9274 -81.1148 312° West  Level Estimated
Fri 05:13:00 PM 33.9550 -81.1512 312° West  Level Estimated
Fri 05:14:00 PM 33.9826 -81.1877 312° West  Level Estimated
Fri 05:15:00 PM 34.0102 -81.2242 312° West  Level Estimated
Fri 05:16:00 PM 34.0378 -81.2607 312° West  Level Estimated
Fri 05:17:00 PM 34.0654 -81.2972 312° West  Level Estimated
Fri 05:18:00 PM 34.0930 -81.3338 312° West  Level Estimated
Fri 05:19:00 PM 34.1205 -81.3704 312° West  Level Estimated
Fri 05:20:00 PM 34.1481 -81.4070 312° West  Level Estimated
Fri 05:21:00 PM 34.1756 -81.4436 312° West  Level Estimated
Fri 05:22:00 PM 34.2032 -81.4802 312° West  Level Estimated
Fri 05:23:00 PM 34.2307 -81.5169 312° West  Level Estimated
Fri 05:24:00 PM 34.2582 -81.5536 312° West  Level Estimated
Fri 05:25:00 PM 34.2857 -81.5903 312° West  Level Estimated
Fri 05:26:00 PM 34.3132 -81.6271 312° West  Level Estimated
Fri 05:27:00 PM 34.3406 -81.6639 312° West  Level Estimated
Fri 05:28:00 PM 34.3681 -81.7007 312° West  Level Estimated
Fri 05:29:00 PM 34.3955 -81.7375 312° West  Level Estimated
Fri 05:30:00 PM 34.4230 -81.7743 312° West  Level Estimated
Fri 05:31:00 PM 34.4504 -81.8112 312° West  Level Estimated
Fri 05:32:00 PM 34.4778 -81.8481 312° West  Level Estimated
Fri 05:33:00 PM 34.5052 -81.8850 312° West  Level Estimated
Fri 05:34:00 PM 34.5326 -81.9220 312° West  Level Estimated
Fri 05:35:00 PM 34.5600 -81.9589 312° West  Level Estimated
Fri 05:36:00 PM 34.5874 -81.9959 312° West  Level Estimated
Fri 05:37:00 PM 34.6148 -82.0329 312° West  Level Estimated
Fri 05:38:00 PM 34.6421 -82.0700 312° West  Level Estimated
Fri 05:39:00 PM 34.6694 -82.1070 312° West  Level Estimated
Fri 05:40:00 PM 34.6968 -82.1441 312° West  Level Estimated
Fri 05:41:00 PM 34.7241 -82.1812 312° West  Level Estimated
Fri 05:42:00 PM 34.7514 -82.2184 312° West  Level Estimated
Fri 05:43:00 PM 34.7787 -82.2555 312° West  Level Estimated
Fri 05:44:00 PM 34.8060 -82.2927 312° West  Level Estimated
Fri 05:45:00 PM 34.8332 -82.3299 312° West  Level Estimated
Fri 05:46:00 PM 34.8479 -82.3500 312° West  Level Estimated
Fri 05:47:00 PM 34.8479 -82.3500 North  Level Estimated
Fri 05:48:00 PM 34.8479 -82.3500 North  Level Estimated
Fri 05:49:00 PM 34.8479 -82.3500 North  Level Estimated
Fri 05:50:00 PM 34.8479 -82.3500 North  Level Estimated
Fri 05:51:00 PM 34.8479 -82.3500 North  Level Estimated
Fri 05:52:00 PM 34.8479 -82.3500 North  Level Estimated
Fri 05:53:00 PM 34.8479 -82.3500 North  Level Estimated
Fri 05:54:00 PM 34.8479 -82.3500 North  Level Estimated
Fri 05:55:00 PM 34.8479 -82.3500 North  Level Estimated

Login

Don't have an account? Register now (free) for customized features, flight alerts, and more!